createdAt,value
2022-11-13T00:01:20.884Z,31.10
2022-11-13T00:04:06.393Z,29.52
2022-11-13T00:06:56.289Z,30.60
2022-11-13T00:09:44.499Z,30.55
2022-11-13T00:12:29.929Z,29.50
2022-11-13T00:15:15.229Z,30.98
2022-11-13T00:18:02.701Z,28.08
2022-11-13T00:20:48.349Z,30.90
2022-11-13T00:23:34.992Z,36.30
2022-11-13T00:26:23.134Z,29.10
2022-11-13T00:29:09.132Z,31.83
2022-11-13T00:31:54.736Z,30.23
2022-11-13T00:34:48.320Z,30.30
2022-11-13T00:37:34.028Z,31.60
2022-11-13T00:40:19.344Z,31.35
2022-11-13T00:43:04.530Z,31.10
2022-11-13T00:45:50.193Z,26.77
2022-11-13T00:48:36.273Z,28.58
2022-11-13T00:51:22.231Z,32.80
2022-11-13T00:54:07.610Z,27.88
2022-11-13T00:56:52.868Z,31.33
2022-11-13T00:59:38.355Z,30.63
2022-11-13T01:02:23.521Z,30.00
2022-11-13T01:05:09.061Z,30.27
2022-11-13T01:07:54.371Z,32.13
2022-11-13T01:10:51.916Z,30.75
2022-11-13T01:13:43.940Z,31.00
2022-11-13T01:16:29.210Z,33.25
2022-11-13T01:19:14.642Z,29.48
2022-11-13T01:22:00.090Z,28.08
2022-11-13T01:24:48.407Z,28.55
2022-11-13T01:27:37.172Z,27.13
2022-11-13T01:30:22.819Z,29.45
2022-11-13T01:33:08.157Z,26.70
2022-11-13T01:35:53.442Z,25.42
2022-11-13T01:38:39.213Z,27.95
2022-11-13T01:41:30.990Z,27.92
2022-11-13T01:44:17.971Z,28.52
2022-11-13T01:47:03.775Z,27.10
2022-11-13T01:49:52.203Z,27.52
2022-11-13T01:52:39.313Z,27.17
2022-11-13T01:55:24.395Z,28.90
2022-11-13T01:58:10.673Z,27.38
2022-11-13T02:00:56.080Z,26.80
2022-11-13T02:03:41.471Z,26.73
2022-11-13T02:06:29.298Z,28.92
2022-11-13T02:09:16.815Z,25.90
2022-11-13T02:12:02.936Z,28.00
2022-11-13T02:14:52.989Z,23.67
2022-11-13T02:17:45.174Z,25.00
2022-11-13T02:20:38.200Z,25.95
2022-11-13T02:24:01.592Z,26.73
2022-11-13T02:26:47.428Z,23.02
2022-11-13T02:29:32.725Z,25.52
2022-11-13T02:32:18.390Z,23.98
2022-11-13T02:35:04.223Z,25.55
2022-11-13T02:37:49.584Z,21.00
2022-11-13T02:40:34.918Z,25.45
2022-11-13T02:43:20.335Z,24.45
2022-11-13T02:46:05.796Z,23.52
2022-11-13T02:48:51.170Z,20.80
2022-11-13T02:51:36.631Z,23.60
2022-11-13T02:54:21.878Z,24.35
2022-11-13T02:57:07.210Z,25.20
2022-11-13T02:59:52.649Z,19.70
2022-11-13T03:02:37.973Z,22.00
2022-11-13T03:05:23.461Z,22.98
2022-11-13T03:08:08.859Z,20.55
2022-11-13T03:10:54.408Z,21.05
2022-11-13T03:13:40.070Z,19.15
2022-11-13T03:16:25.443Z,23.45
2022-11-13T03:19:10.857Z,21.83
2022-11-13T03:21:56.230Z,20.42
2022-11-13T03:24:41.578Z,17.65
2022-11-13T03:27:26.744Z,21.10
2022-11-13T03:30:12.356Z,20.90
2022-11-13T03:32:58.255Z,18.85
2022-11-13T03:35:47.005Z,20.25
2022-11-13T03:38:32.651Z,23.67
2022-11-13T03:41:17.981Z,18.75
2022-11-13T03:44:03.378Z,17.17
2022-11-13T03:46:48.674Z,21.70
2022-11-13T03:49:33.844Z,15.40
2022-11-13T03:52:19.230Z,18.08
2022-11-13T03:55:04.851Z,16.67
2022-11-13T03:57:49.945Z,16.85
2022-11-13T04:00:36.143Z,16.63
2022-11-13T04:03:22.350Z,17.73
2022-11-13T04:06:07.651Z,22.23
2022-11-13T04:08:53.963Z,16.27
2022-11-13T04:11:39.174Z,16.83
2022-11-13T04:14:26.700Z,16.77
2022-11-13T04:17:11.891Z,18.45
2022-11-13T04:19:57.298Z,15.90
2022-11-13T04:22:42.725Z,17.75
2022-11-13T04:25:27.948Z,18.63
2022-11-13T04:28:13.789Z,14.02
2022-11-13T04:30:58.940Z,16.60
2022-11-13T04:33:44.284Z,14.98
2022-11-13T04:36:29.515Z,17.48
2022-11-13T04:39:14.616Z,17.10
2022-11-13T04:42:18.602Z,16.85
2022-11-13T04:45:04.233Z,17.85
2022-11-13T04:47:51.154Z,15.20
2022-11-13T04:50:36.848Z,16.85
2022-11-13T04:53:22.025Z,15.10
2022-11-13T04:56:07.265Z,18.55
2022-11-13T04:58:52.746Z,16.55
2022-11-13T05:01:38.069Z,14.45
2022-11-13T05:04:23.564Z,15.60
2022-11-13T05:07:08.824Z,19.35
2022-11-13T05:09:54.579Z,15.30
2022-11-13T05:12:39.968Z,16.88
2022-11-13T05:15:25.433Z,14.93
2022-11-13T05:18:10.940Z,16.27
2022-11-13T05:20:56.309Z,13.75
2022-11-13T05:23:41.634Z,12.55
2022-11-13T05:26:27.052Z,15.68
2022-11-13T05:29:12.456Z,17.27
2022-11-13T05:31:57.792Z,16.15
2022-11-13T05:34:43.048Z,16.63
2022-11-13T05:37:29.082Z,18.38
2022-11-13T05:40:14.489Z,15.32
2022-11-13T05:42:59.754Z,16.05
2022-11-13T05:45:45.063Z,13.98
2022-11-13T05:48:31.229Z,15.98
2022-11-13T05:51:26.554Z,14.75
2022-11-13T05:54:12.047Z,16.88
2022-11-13T05:56:57.318Z,14.25
2022-11-13T05:59:42.815Z,15.20
2022-11-13T06:02:28.147Z,16.15
2022-11-13T06:05:13.571Z,16.08
2022-11-13T06:08:00.094Z,14.82
2022-11-13T06:10:45.501Z,12.23
2022-11-13T06:13:31.084Z,13.20
2022-11-13T06:16:26.378Z,12.70
2022-11-13T06:19:12.159Z,13.45
2022-11-13T06:21:57.506Z,13.38
2022-11-13T06:24:42.612Z,15.40
2022-11-13T06:27:28.359Z,15.00
2022-11-13T06:30:14.299Z,15.02
2022-11-13T06:32:59.970Z,11.20
2022-11-13T06:35:45.530Z,14.13
2022-11-13T06:38:32.876Z,12.75
2022-11-13T06:41:20.818Z,17.55
2022-11-13T06:44:06.375Z,16.48
2022-11-13T06:46:51.794Z,17.60
2022-11-13T06:49:37.158Z,17.35
2022-11-13T06:52:23.670Z,15.35
2022-11-13T06:55:09.307Z,15.13
2022-11-13T06:57:55.657Z,19.30
2022-11-13T07:00:42.282Z,17.08
2022-11-13T07:03:27.897Z,15.80
2022-11-13T07:06:16.961Z,14.88
2022-11-13T07:09:02.438Z,15.07
2022-11-13T07:11:52.056Z,17.63
2022-11-13T07:14:37.544Z,18.02
2022-11-13T07:17:23.073Z,16.92
2022-11-13T07:20:09.484Z,19.23
2022-11-13T07:22:59.032Z,17.90
2022-11-13T07:25:44.624Z,19.27
2022-11-13T07:28:30.825Z,19.33
2022-11-13T07:31:17.781Z,19.92
2022-11-13T07:34:04.240Z,20.02
2022-11-13T07:36:49.579Z,24.75
2022-11-13T07:39:34.809Z,18.95
2022-11-13T07:42:20.131Z,17.30
2022-11-13T07:45:06.181Z,20.15
2022-11-13T07:47:51.598Z,19.83
2022-11-13T07:50:38.560Z,26.02
2022-11-13T07:53:24.172Z,23.83
2022-11-13T07:56:09.566Z,22.77
2022-11-13T07:58:55.008Z,25.05
2022-11-13T08:01:40.501Z,24.35
2022-11-13T08:04:26.230Z,26.40
2022-11-13T08:07:13.177Z,25.13
2022-11-13T08:09:58.777Z,28.48
2022-11-13T08:12:44.881Z,26.67
2022-11-13T08:15:31.385Z,26.30
2022-11-13T08:18:17.050Z,25.02
2022-11-13T08:21:04.073Z,25.55
2022-11-13T08:23:50.550Z,24.85
2022-11-13T08:26:38.613Z,25.10
2022-11-13T08:29:24.321Z,22.38
2022-11-13T08:32:10.161Z,24.35
2022-11-13T08:34:55.791Z,27.75
2022-11-13T08:37:41.659Z,25.65
2022-11-13T08:40:27.196Z,23.65
2022-11-13T08:43:12.964Z,24.95
2022-11-13T08:45:58.836Z,24.00
2022-11-13T08:48:44.273Z,27.58
2022-11-13T08:51:29.913Z,22.10
2022-11-13T08:54:15.319Z,21.40
2022-11-13T08:57:05.614Z,24.23
2022-11-13T08:59:51.269Z,21.08
2022-11-13T09:02:36.733Z,18.83
2022-11-13T09:05:23.289Z,22.05
2022-11-13T09:08:08.654Z,19.85
2022-11-13T09:10:53.891Z,18.95
2022-11-13T09:13:44.007Z,21.38
2022-11-13T09:16:31.468Z,20.77
2022-11-13T09:19:16.515Z,19.35
2022-11-13T09:22:02.145Z,22.20
2022-11-13T09:24:47.765Z,21.80
2022-11-13T09:27:33.083Z,24.38
2022-11-13T09:30:18.872Z,21.83
2022-11-13T09:33:04.687Z,20.70
2022-11-13T09:35:50.097Z,17.67
2022-11-13T09:38:35.751Z,18.88
2022-11-13T09:41:25.054Z,20.67
2022-11-13T09:44:29.621Z,17.27
2022-11-13T09:47:28.902Z,18.58
2022-11-13T09:50:18.608Z,15.70
2022-11-13T09:53:04.651Z,20.33
2022-11-13T09:56:24.993Z,16.45
2022-11-13T09:59:30.978Z,20.20
2022-11-13T10:02:53.225Z,19.13
2022-11-13T10:05:58.805Z,20.45
2022-11-13T10:09:01.017Z,20.15
2022-11-13T10:11:52.809Z,19.48
2022-11-13T10:14:46.203Z,18.13
2022-11-13T10:17:37.414Z,19.15
2022-11-13T10:20:28.949Z,19.30
2022-11-13T10:23:15.513Z,21.75
2022-11-13T10:26:12.405Z,20.65
2022-11-13T10:29:09.177Z,19.45
2022-11-13T10:31:54.861Z,20.55
2022-11-13T10:34:41.209Z,25.95
2022-11-13T10:37:57.580Z,23.13
2022-11-13T10:40:43.090Z,21.48
2022-11-13T10:43:28.887Z,21.40
2022-11-13T10:46:20.895Z,20.88
2022-11-13T10:49:32.717Z,17.98
2022-11-13T10:52:29.078Z,19.30
2022-11-13T10:55:39.552Z,18.23
2022-11-13T10:58:25.572Z,22.65
2022-11-13T11:01:23.993Z,20.27
2022-11-13T11:04:29.781Z,22.67
2022-11-13T11:07:21.815Z,18.95
2022-11-13T11:10:20.672Z,17.48
2022-11-13T11:13:10.868Z,18.92
2022-11-13T11:15:59.668Z,18.30
2022-11-13T11:18:54.158Z,22.05
2022-11-13T11:21:42.373Z,18.83
2022-11-13T11:24:35.323Z,17.02
2022-11-13T11:27:37.532Z,17.77
2022-11-13T11:30:26.469Z,19.10
2022-11-13T11:33:31.572Z,18.23
2022-11-13T11:36:31.265Z,19.88
2022-11-13T11:39:19.628Z,19.63
2022-11-13T11:42:11.061Z,18.40
2022-11-13T11:45:18.721Z,19.73
2022-11-13T11:48:15.473Z,16.98
2022-11-13T11:51:30.186Z,17.42
2022-11-13T11:54:21.598Z,18.95
2022-11-13T11:57:21.285Z,18.25
2022-11-13T12:00:12.876Z,16.90
2022-11-13T12:03:14.133Z,17.25
2022-11-13T12:06:21.868Z,19.17
2022-11-13T12:09:19.039Z,16.02
2022-11-13T12:12:42.971Z,18.25
2022-11-13T12:15:52.881Z,17.55
2022-11-13T12:18:56.455Z,17.70
2022-11-13T12:21:52.612Z,16.35
2022-11-13T12:25:19.597Z,18.00
2022-11-13T12:28:25.042Z,21.73
2022-11-13T12:31:22.581Z,22.52
2022-11-13T12:34:21.297Z,18.98
2022-11-13T12:37:14.048Z,19.63
2022-11-13T12:40:07.472Z,20.98
2022-11-13T12:43:30.478Z,21.13
2022-11-13T12:46:16.190Z,17.83
2022-11-13T12:49:01.712Z,25.65
2022-11-13T12:51:58.489Z,18.65
2022-11-13T12:54:44.657Z,17.90
2022-11-13T12:57:33.083Z,17.92
2022-11-13T13:00:29.189Z,16.75
2022-11-13T13:03:39.448Z,22.13
2022-11-13T13:06:59.484Z,18.73
2022-11-13T13:10:22.077Z,17.17
2022-11-13T13:13:24.138Z,19.80
2022-11-13T13:16:10.769Z,17.73
2022-11-13T13:19:08.040Z,17.08
2022-11-13T13:21:53.431Z,16.65
2022-11-13T13:24:39.429Z,15.63
2022-11-13T13:27:27.445Z,14.15
2022-11-13T13:30:17.453Z,15.93
2022-11-13T13:33:23.394Z,16.33
2022-11-13T13:36:38.981Z,15.23
2022-11-13T13:39:33.678Z,16.90
2022-11-13T13:42:43.550Z,16.10
2022-11-13T13:46:11.777Z,14.98
2022-11-13T13:49:03.527Z,18.33
2022-11-13T13:51:51.882Z,17.02
2022-11-13T13:54:37.305Z,16.77
2022-11-13T13:57:23.643Z,14.95
2022-11-13T14:00:13.758Z,19.33
2022-11-13T14:02:59.149Z,18.98
2022-11-13T14:05:44.499Z,18.50
2022-11-13T14:08:30.611Z,20.20
2022-11-13T14:11:18.526Z,17.63
2022-11-13T14:14:11.713Z,15.85
2022-11-13T14:17:00.794Z,16.50
2022-11-13T14:19:53.059Z,16.27
2022-11-13T14:22:39.972Z,18.83
2022-11-13T14:25:27.679Z,19.65
2022-11-13T14:28:17.903Z,19.30
2022-11-13T14:31:08.870Z,20.42
2022-11-13T14:33:54.513Z,17.63
2022-11-13T14:36:41.074Z,18.23
2022-11-13T14:39:30.056Z,19.17
2022-11-13T14:42:37.569Z,20.17
2022-11-13T14:45:26.193Z,18.20
2022-11-13T14:48:22.738Z,20.98
2022-11-13T14:51:23.146Z,20.75
2022-11-13T14:54:53.066Z,17.85
2022-11-13T14:57:48.020Z,20.48
2022-11-13T15:00:36.867Z,20.98
2022-11-13T15:03:22.287Z,18.60
2022-11-13T15:06:14.567Z,22.42
2022-11-13T15:09:00.965Z,21.05
2022-11-13T15:11:46.601Z,21.60
2022-11-13T15:14:33.393Z,18.95
2022-11-13T15:17:20.209Z,22.40
2022-11-13T15:20:09.639Z,21.02
2022-11-13T15:22:56.157Z,20.13
2022-11-13T15:25:42.523Z,20.58
2022-11-13T15:28:28.202Z,20.23
2022-11-13T15:31:21.297Z,22.02
2022-11-13T15:34:06.878Z,20.58
2022-11-13T15:36:52.180Z,21.13
2022-11-13T15:39:37.674Z,20.17
2022-11-13T15:42:34.605Z,19.98
2022-11-13T15:45:20.051Z,21.17
2022-11-13T15:48:09.860Z,18.60
2022-11-13T15:50:55.249Z,22.48
2022-11-13T15:53:40.428Z,26.88
2022-11-13T15:56:26.652Z,43.72
2022-11-13T15:59:13.396Z,30.40
2022-11-13T16:01:59.116Z,25.45
2022-11-13T16:04:56.082Z,23.17
2022-11-13T16:07:42.721Z,23.50
2022-11-13T16:10:28.454Z,26.98
2022-11-13T16:13:13.836Z,23.25
2022-11-13T16:16:00.387Z,22.27
2022-11-13T16:18:46.838Z,21.75
2022-11-13T16:21:32.820Z,23.45
2022-11-13T16:24:22.659Z,25.00
2022-11-13T16:27:13.773Z,25.20
2022-11-13T16:30:03.970Z,23.15
2022-11-13T16:32:54.167Z,22.17
2022-11-13T16:35:40.206Z,21.60
2022-11-13T16:38:25.921Z,24.23
2022-11-13T16:41:12.165Z,20.90
2022-11-13T16:43:58.186Z,22.65
2022-11-13T16:46:48.187Z,23.90
2022-11-13T16:49:33.989Z,29.65
2022-11-13T16:52:19.449Z,22.98
2022-11-13T16:55:06.697Z,23.83
2022-11-13T16:57:53.601Z,22.90
2022-11-13T17:00:39.109Z,24.33
2022-11-13T17:03:24.750Z,23.27
2022-11-13T17:06:21.321Z,23.23
2022-11-13T17:09:08.028Z,21.33
2022-11-13T17:11:53.276Z,22.83
2022-11-13T17:14:39.169Z,24.17
2022-11-13T17:17:24.642Z,26.52
2022-11-13T17:20:11.725Z,23.30
2022-11-13T17:22:57.441Z,28.70
2022-11-13T17:25:43.017Z,27.73
2022-11-13T17:28:29.122Z,26.00
2022-11-13T17:31:14.842Z,24.50
2022-11-13T17:34:00.353Z,24.40
2022-11-13T17:36:45.709Z,26.40
2022-11-13T17:39:31.156Z,24.85
2022-11-13T17:42:16.571Z,27.98
2022-11-13T17:45:02.254Z,25.15
2022-11-13T17:47:48.117Z,25.92
2022-11-13T17:50:34.016Z,30.70
2022-11-13T17:53:20.300Z,23.35
2022-11-13T17:56:08.251Z,25.80
2022-11-13T17:58:54.009Z,27.10
2022-11-13T18:01:40.915Z,26.83
2022-11-13T18:04:26.845Z,25.33
2022-11-13T18:07:12.739Z,30.13
2022-11-13T18:09:58.133Z,28.67
2022-11-13T18:12:43.846Z,26.33
2022-11-13T18:15:30.161Z,30.27
2022-11-13T18:18:15.759Z,29.52
2022-11-13T18:21:22.807Z,28.17
2022-11-13T18:24:16.606Z,33.35
2022-11-13T18:27:03.383Z,31.10
2022-11-13T18:29:48.824Z,32.90
2022-11-13T18:32:34.427Z,28.10
2022-11-13T18:35:19.999Z,31.13
2022-11-13T18:38:05.414Z,31.20
2022-11-13T18:40:51.043Z,31.17
2022-11-13T18:43:37.064Z,30.92
2022-11-13T18:46:23.025Z,30.02
2022-11-13T18:49:09.561Z,33.05
2022-11-13T18:51:54.986Z,30.35
2022-11-13T18:54:40.444Z,32.92
2022-11-13T18:57:25.619Z,30.40
2022-11-13T19:00:11.600Z,32.53
2022-11-13T19:02:58.512Z,37.17
2022-11-13T19:05:48.051Z,36.08
2022-11-13T19:08:39.534Z,32.75
2022-11-13T19:11:27.660Z,34.45
2022-11-13T19:14:14.982Z,31.95
2022-11-13T19:17:00.778Z,30.98
2022-11-13T19:19:46.386Z,32.72
2022-11-13T19:22:32.857Z,30.70
2022-11-13T19:25:18.213Z,35.08
2022-11-13T19:28:03.539Z,33.63
2022-11-13T19:30:49.332Z,35.17
2022-11-13T19:33:35.852Z,34.15
2022-11-13T19:36:21.848Z,32.28
2022-11-13T19:39:07.333Z,35.15
2022-11-13T19:41:52.793Z,34.75
2022-11-13T19:44:38.320Z,33.92
2022-11-13T19:47:23.615Z,32.42
2022-11-13T19:50:10.415Z,32.70
2022-11-13T19:52:56.048Z,35.05
2022-11-13T19:55:41.902Z,35.10
2022-11-13T19:58:27.846Z,31.48
2022-11-13T20:01:15.616Z,33.78
2022-11-13T20:04:02.516Z,33.90
2022-11-13T20:06:48.079Z,33.90
2022-11-13T20:09:33.445Z,32.78
2022-11-13T20:12:18.610Z,30.40
2022-11-13T20:15:04.337Z,36.85
2022-11-13T20:17:49.801Z,32.55
2022-11-13T20:20:35.335Z,32.08
2022-11-13T20:23:20.906Z,32.10
2022-11-13T20:26:08.585Z,33.40
2022-11-13T20:28:54.227Z,34.08
2022-11-13T20:31:39.692Z,33.88
2022-11-13T20:34:26.180Z,35.20
2022-11-13T20:37:11.526Z,31.83
2022-11-13T20:39:57.326Z,32.78
2022-11-13T20:42:42.936Z,32.17
2022-11-13T20:45:28.295Z,35.50
2022-11-13T20:48:13.741Z,38.97
2022-11-13T20:51:05.893Z,41.22
2022-11-13T20:53:51.818Z,36.13
2022-11-13T20:56:36.996Z,35.90
2022-11-13T20:59:22.665Z,36.05
2022-11-13T21:02:09.000Z,37.65
2022-11-13T21:04:54.259Z,36.92
2022-11-13T21:07:39.727Z,38.45
2022-11-13T21:10:25.031Z,38.03
2022-11-13T21:13:10.253Z,40.75
2022-11-13T21:15:55.593Z,38.63
2022-11-13T21:18:40.895Z,41.35
2022-11-13T21:21:28.625Z,40.55
2022-11-13T21:24:14.270Z,38.42
2022-11-13T21:26:59.624Z,40.60
2022-11-13T21:29:44.929Z,37.90
2022-11-13T21:32:30.567Z,44.10
2022-11-13T21:35:19.866Z,43.85
2022-11-13T21:38:07.698Z,41.95
2022-11-13T21:41:19.333Z,45.10
2022-11-13T21:44:06.492Z,41.50
2022-11-13T21:46:52.208Z,44.25
2022-11-13T21:49:37.523Z,44.25
2022-11-13T21:52:22.943Z,43.95
2022-11-13T21:55:09.321Z,46.35
2022-11-13T21:57:54.697Z,48.40
2022-11-13T22:00:40.192Z,50.63
2022-11-13T22:03:26.328Z,47.40
2022-11-13T22:06:33.137Z,45.83
2022-11-13T22:09:21.075Z,46.40
2022-11-13T22:12:06.603Z,48.45
2022-11-13T22:14:51.891Z,42.15
2022-11-13T22:17:37.232Z,44.70
2022-11-13T22:20:22.707Z,46.63
2022-11-13T22:23:08.020Z,44.60
2022-11-13T22:25:57.920Z,44.20
2022-11-13T22:28:44.689Z,48.53
2022-11-13T22:31:31.640Z,45.05
2022-11-13T22:34:18.435Z,47.85
2022-11-13T22:37:04.050Z,46.63
2022-11-13T22:39:49.327Z,46.53
2022-11-13T22:42:34.529Z,48.28
2022-11-13T22:45:24.219Z,50.33
2022-11-13T22:48:10.909Z,50.00
2022-11-13T22:50:56.165Z,52.03
2022-11-13T22:53:43.203Z,49.28
2022-11-13T22:56:31.131Z,50.50
2022-11-13T22:59:16.647Z,49.35
2022-11-13T23:02:02.315Z,56.45
2022-11-13T23:04:47.790Z,52.40
2022-11-13T23:07:34.091Z,55.25
2022-11-13T23:10:19.639Z,50.92
2022-11-13T23:13:05.130Z,53.72
2022-11-13T23:15:54.230Z,52.65
2022-11-13T23:18:40.488Z,51.78
2022-11-13T23:21:27.328Z,55.90
2022-11-13T23:24:12.780Z,53.25
2022-11-13T23:26:58.558Z,60.08
2022-11-13T23:29:48.847Z,57.88
2022-11-13T23:32:35.778Z,57.45
2022-11-13T23:35:21.220Z,56.08
2022-11-13T23:38:06.672Z,56.95
2022-11-13T23:40:56.235Z,53.45
2022-11-13T23:46:47.942Z,55.38
2022-11-13T23:49:36.453Z,56.70
2022-11-13T23:52:22.188Z,54.58
2022-11-13T23:55:08.125Z,64.30
2022-11-13T23:58:04.502Z,62.28
